createdAt,value
2019-03-04T00:02:18.698Z,9.10
2019-03-04T00:04:47.144Z,9.00
2019-03-04T00:07:15.574Z,8.90
2019-03-04T00:09:43.974Z,8.80
2019-03-04T00:12:12.387Z,8.70
2019-03-04T00:14:40.801Z,8.60
2019-03-04T00:17:09.231Z,8.60
2019-03-04T00:19:37.734Z,8.50
2019-03-04T00:22:06.167Z,8.50
2019-03-04T00:24:34.567Z,8.40
2019-03-04T00:27:02.998Z,8.30
2019-03-04T00:29:31.407Z,8.20
2019-03-04T00:31:59.835Z,8.10
2019-03-04T00:34:28.244Z,8.00
2019-03-04T00:36:56.679Z,8.00
2019-03-04T00:39:25.095Z,7.90
2019-03-04T00:41:53.803Z,7.90
2019-03-04T00:44:22.198Z,7.90
2019-03-04T00:46:51.386Z,7.90
2019-03-04T00:49:19.814Z,7.90
2019-03-04T00:51:48.219Z,7.90
2019-03-04T00:54:17.034Z,7.90
2019-03-04T00:56:45.468Z,8.00
2019-03-04T00:59:13.902Z,8.10
2019-03-04T01:01:42.306Z,8.10
2019-03-04T01:04:10.711Z,8.10
2019-03-04T01:06:39.126Z,8.10
2019-03-04T01:09:09.419Z,8.10
2019-03-04T01:11:37.880Z,8.10
2019-03-04T01:14:06.559Z,8.10
2019-03-04T01:16:34.986Z,8.20
2019-03-04T01:19:03.397Z,8.20
2019-03-04T01:21:35.446Z,8.30
2019-03-04T01:24:04.043Z,8.40
2019-03-04T01:26:32.513Z,8.50
2019-03-04T01:29:00.913Z,8.50
2019-03-04T01:31:29.335Z,8.50
2019-03-04T01:34:02.030Z,8.60
2019-03-04T01:36:30.434Z,8.50
2019-03-04T01:38:58.843Z,8.30
2019-03-04T01:41:27.290Z,8.20
2019-03-04T01:43:55.686Z,8.00
2019-03-04T01:46:24.106Z,7.80
2019-03-04T01:48:52.527Z,7.70
2019-03-04T01:51:24.491Z,7.60
2019-03-04T01:53:52.889Z,7.40
2019-03-04T01:56:21.276Z,7.30
2019-03-04T01:58:49.814Z,7.30
2019-03-04T02:01:18.213Z,7.20
2019-03-04T02:03:46.659Z,7.20
2019-03-04T02:06:15.094Z,7.10
2019-03-04T02:08:43.511Z,7.20
2019-03-04T02:11:12.355Z,7.30
2019-03-04T02:13:40.866Z,7.40
2019-03-04T02:16:09.307Z,7.50
2019-03-04T02:18:37.715Z,7.60
2019-03-04T02:21:06.127Z,7.80
2019-03-04T02:23:34.543Z,7.90
2019-03-04T02:26:06.090Z,8.00
2019-03-04T02:28:34.826Z,8.10
2019-03-04T02:31:03.407Z,8.20
2019-03-04T02:33:31.847Z,8.20
2019-03-04T02:36:03.082Z,8.30
2019-03-04T02:38:31.520Z,8.40
2019-03-04T02:40:59.986Z,8.40
2019-03-04T02:43:28.665Z,8.40
2019-03-04T02:45:57.071Z,8.40
2019-03-04T02:48:25.470Z,8.40
2019-03-04T02:50:57.656Z,8.40
2019-03-04T02:53:26.071Z,8.50
2019-03-04T02:55:54.568Z,8.50
2019-03-04T02:58:23.039Z,8.60
2019-03-04T03:00:51.463Z,8.60
2019-03-04T03:03:19.895Z,8.50
2019-03-04T03:05:48.289Z,8.60
2019-03-04T03:08:16.727Z,8.50
2019-03-04T03:10:45.127Z,8.50
2019-03-04T03:13:13.551Z,8.50
2019-03-04T03:15:41.959Z,8.40
2019-03-04T03:18:10.390Z,8.30
2019-03-04T03:20:46.329Z,8.40
2019-03-04T03:23:14.730Z,8.30
2019-03-04T03:25:43.139Z,8.10
2019-03-04T03:28:11.559Z,8.10
2019-03-04T03:30:40.269Z,7.90
2019-03-04T03:33:08.780Z,7.80
2019-03-04T03:35:37.202Z,7.70
2019-03-04T03:38:05.634Z,7.50
2019-03-04T03:40:34.041Z,7.50
2019-03-04T03:43:02.557Z,7.50
2019-03-04T03:45:31.044Z,7.50
2019-03-04T03:47:59.481Z,7.60
2019-03-04T03:50:27.875Z,7.60
2019-03-04T03:52:56.312Z,7.60
2019-03-04T03:55:24.733Z,7.70
2019-03-04T03:57:53.141Z,7.80
2019-03-04T04:00:23.230Z,8.00
2019-03-04T04:02:51.712Z,8.00
2019-03-04T04:05:20.299Z,8.10
2019-03-04T04:07:48.873Z,8.10
2019-03-04T04:10:21.267Z,8.30
2019-03-04T04:12:49.797Z,8.30
2019-03-04T04:15:19.558Z,8.40
2019-03-04T04:17:48.526Z,8.40
2019-03-04T04:20:18.351Z,8.40
2019-03-04T04:22:50.349Z,8.40
2019-03-04T04:25:18.775Z,8.50
2019-03-04T04:27:47.276Z,8.60
2019-03-04T04:30:18.821Z,8.60
2019-03-04T04:32:47.263Z,8.50
2019-03-04T04:35:15.693Z,8.50
2019-03-04T04:37:44.099Z,8.40
2019-03-04T04:40:14.071Z,8.40
2019-03-04T04:42:42.512Z,8.30
2019-03-04T04:45:12.822Z,8.30
2019-03-04T04:47:42.999Z,8.30
2019-03-04T04:50:31.608Z,8.20
2019-03-04T04:53:03.711Z,8.20
2019-03-04T04:55:32.115Z,8.20
2019-03-04T04:58:00.531Z,8.30
2019-03-04T05:00:31.111Z,8.30
2019-03-04T05:02:59.111Z,8.30
2019-03-04T05:05:27.538Z,8.30
2019-03-04T05:07:55.939Z,8.30
2019-03-04T05:10:27.483Z,8.30
2019-03-04T05:12:55.891Z,8.30
2019-03-04T05:15:24.330Z,8.20
2019-03-04T05:17:52.838Z,8.20
2019-03-04T05:20:26.368Z,8.30
2019-03-04T05:22:58.686Z,8.30
2019-03-04T05:25:27.094Z,8.30
2019-03-04T05:27:55.541Z,8.40
2019-03-04T05:30:24.323Z,8.40
2019-03-04T05:32:52.724Z,8.40
2019-03-04T05:35:21.154Z,8.40
2019-03-04T05:37:49.558Z,8.30
2019-03-04T05:40:20.304Z,8.40
2019-03-04T05:42:48.828Z,8.40
2019-03-04T05:45:18.468Z,8.40
2019-03-04T05:47:47.254Z,8.40
2019-03-04T05:50:21.398Z,8.40
2019-03-04T05:52:49.920Z,8.40
2019-03-04T05:55:18.353Z,8.40
2019-03-04T05:57:46.788Z,8.40
2019-03-04T06:00:24.534Z,8.40
2019-03-04T06:02:58.673Z,8.40
2019-03-04T06:05:27.119Z,8.50
2019-03-04T06:07:57.168Z,8.50
2019-03-04T06:10:25.682Z,8.60
2019-03-04T06:12:54.081Z,8.60
2019-03-04T06:15:22.518Z,8.70
2019-03-04T06:17:51.290Z,8.80
2019-03-04T06:20:20.271Z,8.80
2019-03-04T06:22:49.243Z,8.90
2019-03-04T06:25:23.528Z,8.80
2019-03-04T06:27:52.002Z,8.80
2019-03-04T06:30:26.318Z,8.70
2019-03-04T06:32:54.740Z,8.70
2019-03-04T06:35:23.144Z,8.70
2019-03-04T06:37:51.619Z,8.70
2019-03-04T06:40:21.350Z,8.70
2019-03-04T06:42:49.990Z,8.90
2019-03-04T06:45:20.039Z,8.90
2019-03-04T06:47:48.539Z,9.00
2019-03-04T06:50:42.460Z,9.00
2019-03-04T06:53:10.907Z,9.10
2019-03-04T06:55:57.145Z,9.20
2019-03-04T06:58:25.769Z,9.20
2019-03-04T07:00:56.043Z,9.20
2019-03-04T07:03:24.484Z,9.30
2019-03-04T07:05:52.884Z,9.40
2019-03-04T07:08:39.618Z,9.40
2019-03-04T07:11:08.046Z,9.60
2019-03-04T07:13:36.521Z,9.70
2019-03-04T07:16:04.931Z,9.70
2019-03-04T07:18:33.365Z,9.90
2019-03-04T07:21:01.883Z,10.00
2019-03-04T07:23:30.310Z,10.10
2019-03-04T07:26:02.391Z,10.20
2019-03-04T07:28:30.799Z,10.30
2019-03-04T07:30:59.420Z,10.40
2019-03-04T07:33:27.822Z,10.40
2019-03-04T07:35:57.686Z,10.40
2019-03-04T07:38:29.211Z,10.40
2019-03-04T07:40:57.624Z,10.40
2019-03-04T07:43:26.074Z,10.40
2019-03-04T07:45:54.482Z,10.50
2019-03-04T07:48:22.899Z,10.50
2019-03-04T07:50:51.623Z,10.60
2019-03-04T07:53:20.115Z,10.70
2019-03-04T07:55:48.531Z,10.90
2019-03-04T07:58:17.162Z,11.00
2019-03-04T08:00:45.575Z,11.10
2019-03-04T08:03:14.031Z,11.20
2019-03-04T08:05:42.917Z,11.30
2019-03-04T08:08:13.782Z,11.40
2019-03-04T08:11:18.337Z,11.50
2019-03-04T08:13:52.795Z,11.60
2019-03-04T08:16:21.200Z,11.70
2019-03-04T08:18:50.171Z,11.90
2019-03-04T08:21:19.220Z,12.00
2019-03-04T08:23:48.172Z,12.20
2019-03-04T08:26:16.622Z,12.30
2019-03-04T08:28:45.710Z,12.40
2019-03-04T08:31:14.760Z,12.50
2019-03-04T08:33:43.408Z,12.60
2019-03-04T08:36:11.895Z,12.60
2019-03-04T08:38:41.415Z,12.70
2019-03-04T08:41:09.842Z,12.80
2019-03-04T08:43:38.370Z,12.90
2019-03-04T08:46:06.850Z,12.90
2019-03-04T08:48:35.279Z,13.00
2019-03-04T08:51:03.712Z,13.10
2019-03-04T08:53:32.411Z,13.10
2019-03-04T08:56:00.822Z,13.10
2019-03-04T08:58:29.358Z,13.20
2019-03-04T09:00:57.762Z,13.10
2019-03-04T09:03:26.884Z,13.10
2019-03-04T09:05:55.461Z,13.10
2019-03-04T09:08:24.485Z,13.20
2019-03-04T09:10:52.925Z,13.30
2019-03-04T09:13:21.577Z,13.30
2019-03-04T09:15:50.631Z,13.30
2019-03-04T09:18:19.083Z,13.40
2019-03-04T09:20:47.506Z,13.40
2019-03-04T09:23:15.914Z,13.30
2019-03-04T09:25:53.302Z,13.20
2019-03-04T09:28:21.730Z,13.30
2019-03-04T09:30:50.252Z,13.40
2019-03-04T09:33:18.700Z,13.40
2019-03-04T09:35:47.263Z,13.30
2019-03-04T09:38:15.698Z,13.20
2019-03-04T09:40:44.142Z,12.90
2019-03-04T09:43:12.634Z,12.60
2019-03-04T09:45:41.070Z,12.40
2019-03-04T09:48:11.954Z,12.20
2019-03-04T09:50:39.819Z,11.60
2019-03-04T09:53:08.249Z,11.60
2019-03-04T09:55:36.736Z,11.80
2019-03-04T09:58:05.435Z,11.90
2019-03-04T10:00:52.020Z,12.00
2019-03-04T10:03:41.681Z,12.10
2019-03-04T10:06:35.898Z,12.20
2019-03-04T10:09:31.465Z,12.40
2019-03-04T10:12:24.042Z,12.70
2019-03-04T10:15:08.903Z,13.00
2019-03-04T10:17:49.734Z,13.30
2019-03-04T10:20:33.081Z,13.30
2019-03-04T10:23:12.791Z,13.40
2019-03-04T10:25:44.587Z,13.50
2019-03-04T10:28:24.769Z,13.50
2019-03-04T10:30:56.279Z,13.60
2019-03-04T10:33:40.092Z,13.60
2019-03-04T10:36:20.645Z,13.50
2019-03-04T10:38:52.129Z,13.50
2019-03-04T10:41:26.462Z,13.40
2019-03-04T10:44:06.198Z,13.30
2019-03-04T10:46:37.863Z,13.30
2019-03-04T10:49:06.540Z,13.30
2019-03-04T10:51:34.950Z,13.20
2019-03-04T10:54:03.390Z,13.20
2019-03-04T10:56:31.830Z,13.20
2019-03-04T10:59:00.238Z,13.00
2019-03-04T11:01:30.675Z,12.80
2019-03-04T11:03:58.839Z,12.80
2019-03-04T11:06:27.247Z,13.00
2019-03-04T11:08:55.690Z,13.20
2019-03-04T11:11:29.920Z,13.20
2019-03-04T11:13:58.045Z,13.10
2019-03-04T11:16:26.584Z,12.90
2019-03-04T11:18:55.007Z,13.00
2019-03-04T11:21:23.423Z,13.00
2019-03-04T11:23:51.855Z,13.00
2019-03-04T11:26:20.522Z,12.70
2019-03-04T11:28:53.311Z,12.40
2019-03-04T11:31:21.722Z,12.40
2019-03-04T11:33:50.247Z,12.50
2019-03-04T11:36:18.654Z,12.50
2019-03-04T11:38:50.028Z,12.40
2019-03-04T11:41:21.178Z,12.40
2019-03-04T11:43:49.686Z,12.40
2019-03-04T11:46:20.047Z,12.20
2019-03-04T11:48:48.487Z,12.30
2019-03-04T11:51:16.989Z,12.30
2019-03-04T11:53:45.407Z,12.30
2019-03-04T11:56:13.842Z,12.40
2019-03-04T11:58:42.250Z,12.30
2019-03-04T12:01:18.023Z,12.20
2019-03-04T12:03:46.439Z,12.10
2019-03-04T12:06:14.875Z,12.10
2019-03-04T12:08:43.279Z,12.10
2019-03-04T12:11:11.686Z,12.20
2019-03-04T12:13:40.133Z,12.30
2019-03-04T12:16:08.850Z,12.30
2019-03-04T12:18:37.252Z,12.30
2019-03-04T12:21:05.959Z,12.40
2019-03-04T12:23:34.482Z,12.40
2019-03-04T12:26:02.923Z,12.50
2019-03-04T12:28:31.343Z,12.40
2019-03-04T12:30:59.763Z,12.30
2019-03-04T12:33:28.275Z,12.30
2019-03-04T12:35:56.682Z,12.40
2019-03-04T12:38:25.114Z,12.20
2019-03-04T12:40:53.563Z,12.10
2019-03-04T12:43:21.979Z,12.20
2019-03-04T12:45:53.636Z,12.20
2019-03-04T12:48:22.078Z,12.20
2019-03-04T12:50:50.520Z,12.20
2019-03-04T12:53:19.011Z,12.20
2019-03-04T12:55:47.411Z,12.20
2019-03-04T12:58:15.936Z,12.10
2019-03-04T13:00:44.351Z,12.10
2019-03-04T13:03:21.512Z,11.90
2019-03-04T13:05:50.187Z,11.90
2019-03-04T13:08:18.627Z,11.80
2019-03-04T13:10:47.035Z,11.80
2019-03-04T13:13:15.491Z,11.80
2019-03-04T13:15:46.773Z,11.70
2019-03-04T13:18:15.467Z,11.60
2019-03-04T13:20:44.447Z,11.50
2019-03-04T13:23:12.884Z,11.50
2019-03-04T13:25:41.289Z,11.50
2019-03-04T13:28:09.793Z,11.60
2019-03-04T13:30:40.466Z,11.60
2019-03-04T13:33:09.279Z,11.60
2019-03-04T13:35:42.470Z,11.50
2019-03-04T13:38:11.082Z,11.50
2019-03-04T13:40:39.501Z,11.50
2019-03-04T13:43:07.986Z,11.50
2019-03-04T13:45:36.425Z,11.50
2019-03-04T13:48:05.175Z,11.50
2019-03-04T13:50:38.609Z,11.50
2019-03-04T13:53:07.919Z,11.50
2019-03-04T13:55:36.335Z,11.50
2019-03-04T13:58:05.019Z,11.60
2019-03-04T14:00:38.728Z,11.60
2019-03-04T14:03:07.140Z,11.60
2019-03-04T14:05:35.571Z,11.60
2019-03-04T14:08:04.413Z,11.60
2019-03-04T14:10:35.905Z,11.60
2019-03-04T14:13:04.382Z,11.50
2019-03-04T14:15:36.021Z,11.50
2019-03-04T14:18:04.674Z,11.50
2019-03-04T14:20:33.081Z,11.50
2019-03-04T14:23:02.086Z,11.40
2019-03-04T14:25:30.563Z,11.40
2019-03-04T14:27:59.005Z,11.40
2019-03-04T14:30:27.958Z,11.50
2019-03-04T14:32:56.395Z,11.50
2019-03-04T14:35:24.808Z,11.50
2019-03-04T14:37:53.250Z,11.50
2019-03-04T14:40:22.606Z,11.50
2019-03-04T14:42:51.311Z,11.50
2019-03-04T14:45:24.639Z,11.50
2019-03-04T14:47:57.246Z,11.40
2019-03-04T14:50:28.268Z,11.30
2019-03-04T14:52:56.310Z,11.30
2019-03-04T14:55:30.700Z,11.20
2019-03-04T14:57:59.202Z,11.30
2019-03-04T15:00:31.591Z,11.50
2019-03-04T15:03:03.599Z,11.90
2019-03-04T15:05:32.021Z,12.10
2019-03-04T15:08:00.472Z,12.00
2019-03-04T15:10:29.369Z,11.90
2019-03-04T15:12:58.038Z,11.80
2019-03-04T15:15:33.752Z,11.70
2019-03-04T15:18:07.077Z,11.60
2019-03-04T15:20:36.022Z,11.20
2019-03-04T15:23:04.832Z,11.00
2019-03-04T15:25:38.410Z,11.10
2019-03-04T15:28:12.162Z,11.10
2019-03-04T15:30:41.723Z,11.00
2019-03-04T15:33:17.916Z,10.80
2019-03-04T15:35:44.490Z,10.80
2019-03-04T15:38:13.012Z,10.80
2019-03-04T15:40:41.558Z,10.80
2019-03-04T15:43:09.999Z,10.70
2019-03-04T15:45:40.691Z,10.70
2019-03-04T15:48:14.030Z,10.70
2019-03-04T15:50:42.506Z,10.80
2019-03-04T15:53:10.929Z,10.70
2019-03-04T15:55:39.366Z,10.70
2019-03-04T15:58:07.990Z,10.60
2019-03-04T16:00:36.886Z,10.50
2019-03-04T16:03:06.715Z,10.50
2019-03-04T16:05:35.328Z,10.50
2019-03-04T16:08:07.653Z,10.60
2019-03-04T16:10:37.366Z,10.50
2019-03-04T16:13:07.519Z,10.60
2019-03-04T16:15:40.206Z,10.50
2019-03-04T16:18:09.615Z,10.50
2019-03-04T16:20:38.103Z,10.50
2019-03-04T16:23:06.839Z,10.50
2019-03-04T16:25:35.311Z,10.50
2019-03-04T16:28:09.605Z,10.50
2019-03-04T16:30:39.292Z,10.50
2019-03-04T16:33:07.726Z,10.50
2019-03-04T16:35:36.138Z,10.50
2019-03-04T16:38:04.659Z,10.50
2019-03-04T16:40:33.106Z,10.50
2019-03-04T16:43:01.542Z,10.50
2019-03-04T16:45:29.952Z,10.50
2019-03-04T16:47:58.399Z,10.50
2019-03-04T16:50:29.722Z,10.00
2019-03-04T16:53:01.575Z,7.50
2019-03-04T16:55:30.014Z,6.80
2019-03-04T16:57:58.597Z,6.50
2019-03-04T17:00:27.199Z,6.30
2019-03-04T17:02:56.090Z,6.20
